createdAt,value
2023-03-26T00:02:19.266Z,97578.73
2023-03-26T00:05:00.351Z,97576.16
2023-03-26T00:07:42.228Z,97578.79
2023-03-26T00:10:37.234Z,97579.02
2023-03-26T00:13:32.244Z,97577.25
2023-03-26T00:16:22.293Z,97580.23
2023-03-26T00:18:57.990Z,97575.38
2023-03-26T00:21:46.228Z,97579.16
2023-03-26T00:24:28.424Z,97580.95
2023-03-26T00:27:16.228Z,97581.63
2023-03-26T00:29:58.210Z,97580.91
2023-03-26T00:32:53.670Z,97582.86
2023-03-26T00:35:43.277Z,97579.89
2023-03-26T00:38:18.388Z,97575.80
2023-03-26T00:41:12.241Z,97579.19
2023-03-26T00:43:48.808Z,97578.89
2023-03-26T00:46:38.417Z,97577.08
2023-03-26T00:49:21.227Z,97573.84
2023-03-26T00:52:16.242Z,97575.52
2023-03-26T00:55:11.207Z,97567.93
2023-03-26T00:57:59.249Z,97568.73
2023-03-26T01:00:41.576Z,97571.14
2023-03-26T01:03:29.322Z,97568.59
2023-03-26T01:06:08.363Z,97568.94
2023-03-26T01:08:57.222Z,97572.80
2023-03-26T01:11:35.361Z,97570.92
2023-03-26T01:14:26.236Z,97573.70
2023-03-26T01:17:03.360Z,97570.45
2023-03-26T01:20:06.225Z,97566.02
2023-03-26T01:22:42.532Z,97569.94
2023-03-26T01:25:32.223Z,97572.14
2023-03-26T01:28:08.998Z,97567.70
2023-03-26T01:31:18.220Z,97564.05
2023-03-26T01:34:02.953Z,97563.06
2023-03-26T01:37:00.222Z,97561.21
2023-03-26T01:40:18.275Z,97560.02
2023-03-26T01:43:21.362Z,97556.69
2023-03-26T01:46:03.227Z,97554.75
2023-03-26T01:48:45.865Z,97553.98
2023-03-26T01:51:43.225Z,97550.89
2023-03-26T01:54:21.352Z,97550.35
2023-03-26T01:57:12.474Z,97546.03
2023-03-26T02:00:19.206Z,97549.34
2023-03-26T02:03:25.263Z,97548.58
2023-03-26T02:06:38.253Z,97543.46
2023-03-26T02:09:36.230Z,97532.96
2023-03-26T02:12:25.385Z,97529.38
2023-03-26T02:15:00.876Z,97526.74
2023-03-26T02:17:49.464Z,97523.28
2023-03-26T02:20:30.332Z,97521.94
2023-03-26T02:23:18.401Z,97515.40
2023-03-26T02:26:01.200Z,97514.56
2023-03-26T02:28:56.213Z,97521.08
2023-03-26T02:31:44.253Z,97519.02
2023-03-26T02:34:19.407Z,97519.89
2023-03-26T02:37:07.421Z,97519.74
2023-03-26T02:39:43.524Z,97519.88
2023-03-26T02:42:31.397Z,97525.92
2023-03-26T02:45:13.206Z,97532.45
2023-03-26T02:48:08.213Z,97531.20
2023-03-26T02:51:01.193Z,97526.74
2023-03-26T02:53:37.703Z,97524.73
2023-03-26T02:56:25.201Z,97526.88
2023-03-26T02:59:00.532Z,97528.50
2023-03-26T03:01:49.213Z,97531.10
2023-03-26T03:04:31.205Z,97536.30
2023-03-26T03:07:21.197Z,97537.31
2023-03-26T03:09:56.331Z,97534.83
2023-03-26T03:12:44.186Z,97537.10
2023-03-26T03:15:26.208Z,97535.39
2023-03-26T03:18:21.391Z,97538.51
2023-03-26T03:21:10.210Z,97540.15
2023-03-26T03:23:45.411Z,97536.44
2023-03-26T03:26:37.182Z,97532.95
2023-03-26T03:29:12.279Z,97532.84
2023-03-26T03:32:00.246Z,97539.27
2023-03-26T03:34:42.629Z,97540.81
2023-03-26T03:37:25.204Z,97539.16
2023-03-26T03:40:15.222Z,97541.15
2023-03-26T03:42:49.745Z,97541.80
2023-03-26T03:45:38.187Z,97544.55
2023-03-26T03:48:12.609Z,97544.64
2023-03-26T03:51:00.190Z,97544.46
2023-03-26T03:53:43.211Z,97546.72
2023-03-26T03:56:26.296Z,97549.28
2023-03-26T03:59:07.177Z,97548.76
2023-03-26T04:01:57.204Z,97545.11
2023-03-26T04:04:32.981Z,97540.96
2023-03-26T04:07:21.178Z,97537.59
2023-03-26T04:10:10.158Z,97538.40
2023-03-26T04:12:58.167Z,97539.63
2023-03-26T04:15:40.226Z,97542.88
2023-03-26T04:18:36.195Z,97541.16
2023-03-26T04:21:24.152Z,97534.73
2023-03-26T04:23:58.260Z,97532.55
2023-03-26T04:26:47.203Z,97531.79
2023-03-26T04:29:26.432Z,97534.52
2023-03-26T04:32:19.196Z,97529.09
2023-03-26T04:34:54.342Z,97523.23
2023-03-26T04:37:47.188Z,97509.91
2023-03-26T04:40:30.776Z,97509.83
2023-03-26T04:43:23.187Z,97516.55
2023-03-26T04:46:05.349Z,97525.52
2023-03-26T04:48:47.392Z,97528.33
2023-03-26T04:51:35.162Z,97531.27
2023-03-26T04:54:20.383Z,97532.70
2023-03-26T04:57:12.243Z,97523.70
2023-03-26T04:59:53.186Z,97518.06
2023-03-26T05:02:41.408Z,97509.36
2023-03-26T05:05:24.203Z,97511.24
2023-03-26T05:08:06.547Z,97511.30
2023-03-26T05:10:48.380Z,97509.42
2023-03-26T05:13:31.318Z,97508.48
2023-03-26T05:16:12.259Z,97501.89
2023-03-26T05:18:54.250Z,97501.45
2023-03-26T05:21:35.229Z,97499.37
2023-03-26T05:24:17.536Z,97496.95
2023-03-26T05:26:59.185Z,97501.48
2023-03-26T05:29:41.106Z,97501.48
2023-03-26T05:32:22.179Z,97503.23
2023-03-26T05:35:04.054Z,97505.16
2023-03-26T05:37:47.189Z,97503.86
2023-03-26T05:40:28.369Z,97502.90
2023-03-26T05:43:09.176Z,97503.23
2023-03-26T05:45:57.192Z,97500.07
2023-03-26T05:48:38.185Z,97504.31
2023-03-26T05:51:23.561Z,97516.27
2023-03-26T05:54:05.167Z,97518.61
2023-03-26T05:56:47.185Z,97518.95
2023-03-26T05:59:28.171Z,97521.19
2023-03-26T06:02:16.171Z,97524.38
2023-03-26T06:04:51.210Z,97526.09
2023-03-26T06:07:40.166Z,97527.09
2023-03-26T06:10:28.229Z,97530.23
2023-03-26T06:13:16.187Z,97524.31
2023-03-26T06:15:51.364Z,97526.27
2023-03-26T06:18:39.303Z,97530.78
2023-03-26T06:21:14.360Z,97532.71
2023-03-26T06:24:02.186Z,97533.19
2023-03-26T06:26:37.318Z,97528.56
2023-03-26T06:29:25.177Z,97533.96
2023-03-26T06:32:09.141Z,97533.90
2023-03-26T06:35:04.168Z,97537.18
2023-03-26T06:37:39.299Z,97529.38
2023-03-26T06:40:27.203Z,97522.90
2023-03-26T06:43:07.392Z,97522.09
2023-03-26T06:59:21.759Z,97523.09
2023-03-26T07:02:17.712Z,97521.69
2023-03-26T07:05:05.703Z,97520.91
2023-03-26T07:07:46.502Z,97524.22
2023-03-26T07:10:34.724Z,97523.05
2023-03-26T07:13:15.895Z,97523.30
2023-03-26T07:15:56.725Z,97522.92
2023-03-26T07:18:37.936Z,97520.66
2023-03-26T07:21:19.729Z,97518.34
2023-03-26T07:24:08.817Z,97512.81
2023-03-26T07:27:00.726Z,97516.80
2023-03-26T07:29:51.713Z,97517.51
2023-03-26T07:32:35.683Z,97515.48
2023-03-26T07:35:38.734Z,97521.77
2023-03-26T07:38:33.217Z,97520.86
2023-03-26T07:41:52.715Z,97518.87
2023-03-26T07:44:48.701Z,97513.98
2023-03-26T07:47:45.737Z,97510.90
2023-03-26T07:50:23.194Z,97502.33
2023-03-26T07:53:10.944Z,97489.85
2023-03-26T07:56:14.719Z,97498.64
2023-03-26T07:59:12.993Z,97509.02
2023-03-26T08:02:10.704Z,97507.30
2023-03-26T08:05:17.965Z,97498.62
2023-03-26T08:08:27.747Z,97501.73
2023-03-26T08:11:34.879Z,97500.39
2023-03-26T08:14:31.724Z,97490.85
2023-03-26T08:17:17.841Z,97488.32
2023-03-26T08:20:37.745Z,97487.45
2023-03-26T08:23:22.165Z,97497.38
2023-03-26T08:26:20.722Z,97496.41
2023-03-26T08:29:27.943Z,97500.45
2023-03-26T08:32:20.718Z,97499.38
2023-03-26T08:35:05.207Z,97499.03
2023-03-26T08:37:46.774Z,97506.77
2023-03-26T08:41:23.756Z,97502.55
2023-03-26T08:44:30.721Z,97489.95
2023-03-26T08:47:42.883Z,97487.92
2023-03-26T08:50:36.709Z,97496.16
2023-03-26T08:53:33.930Z,97494.38
2023-03-26T08:56:30.871Z,97496.80
2023-03-26T08:59:44.711Z,97494.64
2023-03-26T09:02:44.860Z,97496.39
2023-03-26T09:05:48.861Z,97490.66
2023-03-26T09:09:18.801Z,97486.04
2023-03-26T09:12:27.721Z,97477.16
2023-03-26T09:15:39.715Z,97475.17
2023-03-26T09:18:36.054Z,97481.30
2023-03-26T09:21:49.918Z,97482.66
2023-03-26T09:25:01.853Z,97479.41
2023-03-26T09:28:01.252Z,97470.14
2023-03-26T09:30:57.853Z,97472.23
2023-03-26T09:34:06.714Z,97471.02
2023-03-26T09:36:57.721Z,97474.07
2023-03-26T09:40:03.710Z,97480.02
2023-03-26T09:42:37.831Z,97477.27
2023-03-26T09:45:43.803Z,97479.16
2023-03-26T09:48:43.701Z,97484.00
2023-03-26T09:51:49.041Z,97496.95
2023-03-26T09:54:55.715Z,97487.23
2023-03-26T09:57:51.708Z,97491.70
2023-03-26T10:00:34.861Z,97481.64
2023-03-26T10:03:32.877Z,97483.30
2023-03-26T10:06:19.839Z,97479.70
2023-03-26T10:09:27.723Z,97475.60
2023-03-26T10:12:14.837Z,97479.21
2023-03-26T10:15:27.702Z,97469.73
2023-03-26T10:18:39.844Z,97476.66
2023-03-26T10:22:04.735Z,97482.06
2023-03-26T10:25:10.725Z,97473.10
2023-03-26T10:28:12.862Z,97467.58
2023-03-26T10:31:12.839Z,97460.69
2023-03-26T10:33:58.095Z,97458.33
2023-03-26T10:37:21.890Z,97464.68
2023-03-26T10:40:11.498Z,97461.91
2023-03-26T10:43:08.699Z,97453.84
2023-03-26T10:46:11.418Z,97467.92
2023-03-26T10:49:03.731Z,97467.45
2023-03-26T10:52:01.773Z,97462.58
2023-03-26T10:55:29.270Z,97459.39
2023-03-26T10:58:25.821Z,97459.21
2023-03-26T11:01:25.673Z,97458.89
2023-03-26T11:04:29.659Z,97455.46
2023-03-26T11:07:58.596Z,97458.71
2023-03-26T11:11:07.715Z,97449.42
2023-03-26T11:14:34.488Z,97453.27
2023-03-26T11:17:42.793Z,97450.81
2023-03-26T11:20:34.809Z,97451.19
2023-03-26T11:23:27.405Z,97448.34
2023-03-26T11:26:19.696Z,97446.88
2023-03-26T11:29:31.838Z,97444.19
2023-03-26T11:32:54.733Z,97442.05
2023-03-26T11:35:39.538Z,97441.63
2023-03-26T11:38:44.709Z,97437.89
2023-03-26T11:41:24.947Z,97434.71
2023-03-26T11:44:17.709Z,97434.02
2023-03-26T11:47:00.109Z,97435.34
2023-03-26T11:49:49.714Z,97428.33
2023-03-26T11:52:24.601Z,97424.11
2023-03-26T11:55:13.718Z,97415.67
2023-03-26T11:58:12.725Z,97407.95
2023-03-26T12:01:01.720Z,97404.16
2023-03-26T12:03:38.396Z,97403.80
2023-03-26T12:06:32.714Z,97412.20
2023-03-26T12:09:07.833Z,97429.61
2023-03-26T12:12:01.371Z,97420.65
2023-03-26T12:14:38.844Z,97408.39
2023-03-26T12:17:37.719Z,97407.37
2023-03-26T12:20:32.181Z,97409.14
2023-03-26T12:23:50.824Z,97420.36
2023-03-26T12:26:51.033Z,97422.12
2023-03-26T12:29:43.410Z,97426.34
2023-03-26T12:32:29.730Z,97423.79
2023-03-26T12:35:35.712Z,97411.28
2023-03-26T12:38:40.869Z,97396.59
2023-03-26T12:44:43.490Z,97393.21
2023-03-26T12:44:54.771Z,97391.08
2023-03-26T12:48:00.393Z,97387.18
2023-03-26T12:50:59.738Z,97381.98
2023-03-26T12:54:39.652Z,97378.58
2023-03-26T12:57:51.504Z,97373.56
2023-03-26T13:01:09.707Z,97378.95
2023-03-26T13:04:31.703Z,97372.14
2023-03-26T13:07:51.697Z,97374.44
2023-03-26T13:11:03.687Z,97368.45
2023-03-26T13:14:03.854Z,97367.60
2023-03-26T13:17:03.269Z,97363.23
2023-03-26T13:20:19.697Z,97357.20
2023-03-26T13:23:30.681Z,97355.33
2023-03-26T13:26:53.695Z,97351.59
2023-03-26T13:30:02.725Z,97346.63
2023-03-26T13:33:12.697Z,97341.57
2023-03-26T13:36:23.154Z,97339.86
2023-03-26T13:39:25.718Z,97334.08
2023-03-26T13:42:42.693Z,97323.98
2023-03-26T13:45:47.042Z,97325.92
2023-03-26T13:48:36.689Z,97324.24
2023-03-26T13:51:35.973Z,97321.02
2023-03-26T13:54:31.696Z,97315.71
2023-03-26T13:57:44.843Z,97312.06
2023-03-26T14:00:42.687Z,97303.63
2023-03-26T14:03:29.182Z,97302.83
2023-03-26T14:06:41.216Z,97306.49
2023-03-26T14:09:48.453Z,97300.12
2023-03-26T14:12:45.716Z,97300.75
2023-03-26T14:15:24.844Z,97306.30
2023-03-26T14:18:42.720Z,97302.52
2023-03-26T14:22:01.698Z,97296.95
2023-03-26T14:25:15.691Z,97290.86
2023-03-26T14:28:20.682Z,97291.34
2023-03-26T14:31:31.882Z,97287.61
2023-03-26T14:34:36.683Z,97287.05
2023-03-26T14:37:27.935Z,97283.14
2023-03-26T14:40:34.688Z,97284.18
2023-03-26T14:43:36.722Z,97288.15
2023-03-26T14:46:42.779Z,97288.15
2023-03-26T14:49:30.897Z,97295.61
2023-03-26T14:52:38.899Z,97292.94
2023-03-26T14:55:22.098Z,97294.20
2023-03-26T14:58:40.708Z,97297.39
2023-03-26T15:01:40.690Z,97290.77
2023-03-26T15:05:05.699Z,97288.66
2023-03-26T15:08:18.889Z,97285.45
2023-03-26T15:11:42.711Z,97289.92
2023-03-26T15:14:57.854Z,97288.31
2023-03-26T15:18:03.707Z,97283.56
2023-03-26T15:21:03.854Z,97288.33
2023-03-26T15:24:09.727Z,97282.89
2023-03-26T15:27:15.839Z,97283.84
2023-03-26T15:30:27.704Z,97282.45
2023-03-26T15:33:34.180Z,97286.33
2023-03-26T15:36:59.713Z,97283.77
2023-03-26T15:40:09.772Z,97280.86
2023-03-26T15:43:17.916Z,97275.08
2023-03-26T15:46:16.101Z,97267.30
2023-03-26T15:48:59.717Z,97262.66
2023-03-26T15:51:49.841Z,97262.20
2023-03-26T15:54:35.702Z,97257.69
2023-03-26T15:58:12.885Z,97256.85
2023-03-26T16:01:27.739Z,97257.21
2023-03-26T16:04:33.917Z,97251.30
2023-03-26T16:07:33.901Z,97257.95
2023-03-26T16:10:44.694Z,97256.92
2023-03-26T16:13:32.708Z,97257.50
2023-03-26T16:16:16.692Z,97254.89
2023-03-26T16:19:33.767Z,97246.30
2023-03-26T16:22:59.106Z,97247.38
2023-03-26T16:25:44.689Z,97248.38
2023-03-26T16:28:45.697Z,97247.95
2023-03-26T16:31:38.151Z,97248.86
2023-03-26T16:34:29.553Z,97245.95
2023-03-26T16:37:46.858Z,97241.88
2023-03-26T16:40:24.164Z,97236.85
2023-03-26T16:43:23.710Z,97239.95
2023-03-26T16:46:23.106Z,97241.66
2023-03-26T16:49:14.686Z,97234.62
2023-03-26T16:52:03.981Z,97233.56
2023-03-26T16:54:58.701Z,97233.27
2023-03-26T16:57:37.339Z,97233.41
2023-03-26T17:00:34.855Z,97231.44
2023-03-26T17:03:51.129Z,97235.16
2023-03-26T17:06:42.703Z,97236.65
2023-03-26T17:09:27.068Z,97233.50
2023-03-26T17:12:44.863Z,97232.41
2023-03-26T17:15:32.925Z,97230.33
2023-03-26T17:18:41.732Z,97230.71
2023-03-26T17:21:24.910Z,97221.01
2023-03-26T17:24:18.693Z,97218.96
2023-03-26T17:27:14.590Z,97219.86
2023-03-26T17:30:27.669Z,97225.77
2023-03-26T17:33:06.160Z,97225.50
2023-03-26T17:35:55.765Z,97225.41
2023-03-26T17:38:30.834Z,97229.52
2023-03-26T17:41:20.690Z,97230.01
2023-03-26T17:43:56.815Z,97232.58
2023-03-26T17:46:48.333Z,97230.41
2023-03-26T17:49:36.691Z,97231.92
2023-03-26T17:52:28.689Z,97232.70
2023-03-26T17:55:14.446Z,97238.33
2023-03-26T17:58:18.738Z,97235.98
2023-03-26T18:01:19.015Z,97238.95
2023-03-26T18:03:56.378Z,97242.64
2023-03-26T18:07:06.746Z,97236.64
2023-03-26T18:10:07.268Z,97234.84
2023-03-26T18:12:55.691Z,97232.83
2023-03-26T18:15:58.943Z,97230.04
2023-03-26T18:18:47.117Z,97225.59
2023-03-26T18:21:33.525Z,97225.95
2023-03-26T18:24:21.691Z,97230.72
2023-03-26T18:27:13.125Z,97229.58
2023-03-26T18:30:03.708Z,97228.40
2023-03-26T18:33:00.800Z,97227.53
2023-03-26T18:36:02.729Z,97227.58
2023-03-26T18:38:50.849Z,97228.04
2023-03-26T18:41:32.664Z,97220.46
2023-03-26T18:44:29.704Z,97220.38
2023-03-26T18:47:16.675Z,97224.30
2023-03-26T18:50:01.895Z,97224.83
2023-03-26T18:52:42.682Z,97224.80
2023-03-26T18:55:23.858Z,97223.86
2023-03-26T18:58:04.697Z,97220.73
2023-03-26T19:00:46.138Z,97216.52
2023-03-26T19:03:31.017Z,97213.83
2023-03-26T19:06:21.688Z,97211.45
2023-03-26T19:09:30.988Z,97212.52
2023-03-26T19:12:43.625Z,97213.89
2023-03-26T19:15:29.572Z,97215.64
2023-03-26T19:18:12.901Z,97212.61
2023-03-26T19:21:03.695Z,97208.73
2023-03-26T19:23:47.692Z,97203.04
2023-03-26T19:26:43.785Z,97200.83
2023-03-26T19:29:42.884Z,97199.20
2023-03-26T19:32:29.136Z,97197.02
2023-03-26T19:35:29.036Z,97196.47
2023-03-26T19:38:10.667Z,97192.98
2023-03-26T19:41:00.716Z,97188.37
2023-03-26T19:43:48.686Z,97187.64
2023-03-26T19:46:23.664Z,97186.15
2023-03-26T19:49:11.713Z,97184.46
2023-03-26T19:52:03.170Z,97184.91
2023-03-26T19:55:01.464Z,97184.14
2023-03-26T19:57:44.685Z,97181.66
2023-03-26T20:00:40.675Z,97179.77
2023-03-26T20:03:43.786Z,97176.71
2023-03-26T20:06:20.958Z,97172.89
2023-03-26T20:09:11.902Z,97176.21
2023-03-26T20:11:57.226Z,97176.25
2023-03-26T20:14:52.687Z,97174.78
2023-03-26T20:17:41.683Z,97174.78
2023-03-26T20:20:17.657Z,97176.09
2023-03-26T20:23:08.720Z,97180.52
2023-03-26T20:25:57.018Z,97179.52
2023-03-26T20:28:53.436Z,97176.36
2023-03-26T20:31:42.714Z,97168.73
2023-03-26T20:34:32.687Z,97169.77
2023-03-26T20:37:20.632Z,97170.02
2023-03-26T20:40:02.150Z,97173.16
2023-03-26T20:42:43.681Z,97175.52
2023-03-26T20:45:35.668Z,97177.03
2023-03-26T20:48:19.670Z,97178.20
2023-03-26T20:51:08.664Z,97174.23
2023-03-26T20:53:44.296Z,97175.58
2023-03-26T20:56:33.751Z,97169.44
2023-03-26T20:59:17.978Z,97164.15
2023-03-26T21:02:00.729Z,97159.29
2023-03-26T21:04:41.750Z,97154.73
2023-03-26T21:07:18.511Z,97154.08
2023-03-26T21:10:09.744Z,97152.94
2023-03-26T21:12:48.833Z,97148.41
2023-03-26T21:15:37.662Z,97143.92
2023-03-26T21:18:12.775Z,97143.13
2023-03-26T21:21:27.678Z,97141.30
2023-03-26T21:24:07.998Z,97138.17
2023-03-26T21:27:13.682Z,97140.41
2023-03-26T21:29:48.815Z,97135.40
2023-03-26T21:32:38.711Z,97137.10
2023-03-26T21:35:21.900Z,97137.33
2023-03-26T21:38:19.649Z,97130.58
2023-03-26T21:41:08.696Z,97133.48
2023-03-26T21:43:43.783Z,97128.86
2023-03-26T21:46:31.718Z,97124.66
2023-03-26T21:49:13.660Z,97127.30
2023-03-26T21:52:01.692Z,97127.19
2023-03-26T21:54:38.744Z,97127.20
2023-03-26T21:57:44.609Z,97123.64
2023-03-26T22:00:41.074Z,97119.22
2023-03-26T22:04:22.653Z,97111.16
2023-03-26T22:07:32.659Z,97110.95
2023-03-26T22:10:08.214Z,97103.62
2023-03-26T22:12:56.675Z,97101.73
2023-03-26T22:15:38.714Z,97097.86
2023-03-26T22:18:21.918Z,97091.83
2023-03-26T22:21:11.678Z,97086.26
2023-03-26T22:23:53.353Z,97085.89
2023-03-26T22:26:41.668Z,97086.05
2023-03-26T22:29:17.008Z,97092.19
2023-03-26T22:32:04.728Z,97094.58
2023-03-26T22:34:45.675Z,97095.49
2023-03-26T22:37:33.814Z,97100.48
2023-03-26T22:40:09.086Z,97102.92
2023-03-26T22:42:56.656Z,97102.31
2023-03-26T22:45:31.245Z,97105.67
2023-03-26T22:48:18.670Z,97106.40
2023-03-26T22:51:03.758Z,97103.86
2023-03-26T22:53:51.787Z,97106.65
2023-03-26T22:56:26.354Z,97108.33
2023-03-26T22:59:14.686Z,97104.09
2023-03-26T23:02:03.685Z,97103.04
2023-03-26T23:04:45.692Z,97101.36
2023-03-26T23:07:33.660Z,97102.30
2023-03-26T23:10:09.384Z,97103.48
2023-03-26T23:12:58.666Z,97099.77
2023-03-26T23:15:33.898Z,97095.09
2023-03-26T23:18:21.665Z,97092.46
2023-03-26T23:21:03.817Z,97089.90
2023-03-26T23:23:45.759Z,97086.56
2023-03-26T23:26:49.442Z,97080.21
2023-03-26T23:29:25.325Z,97074.57
2023-03-26T23:32:24.296Z,97069.92
2023-03-26T23:35:00.065Z,97068.34
2023-03-26T23:37:48.650Z,97068.27
2023-03-26T23:40:23.181Z,97064.54
2023-03-26T23:43:10.741Z,97062.07
2023-03-26T23:45:48.554Z,97057.27
2023-03-26T23:48:39.638Z,97058.67
2023-03-26T23:51:20.694Z,97054.52
2023-03-26T23:54:08.772Z,97050.63
2023-03-26T23:56:56.902Z,97045.27
2023-03-26T23:59:32.541Z,97040.30
